Time;durP1;ratioP1;P1;durP2;ratioP2;P2;SDS_P1;SDS_P2;PMS_P1;PMS_P2;Temp;Humidity;BMP_temperature;BMP_pressure;BME280_temperature;BME280_humidity;BME280_pressure;Samples;Min_cycle;Max_cycle;Signal;HPM_P1;HPM_P2
2023/08/20 00:00:55;;;;;;;38.80;35.47;;;;;;;;;;5094180;28;20473;-80
2023/08/20 00:03:22;;;;;;;35.00;31.80;;;;;;;;;;5096683;28;20446;-80
2023/08/20 00:05:49;;;;;;;33.40;30.73;;;;;;;;;;5092721;28;20455;-80
2023/08/20 00:08:16;;;;;;;31.50;28.77;;;;;;;;;;5093093;28;20517;-80
2023/08/20 00:10:45;;;;;;;30.93;28.60;;;;;;;;;;5092818;28;20928;-81
2023/08/20 00:13:12;;;;;;;30.57;28.30;;;;;;;;;;5094713;28;20447;-81
2023/08/20 00:15:40;;;;;;;30.90;28.60;;;;;;;;;;5094994;28;20447;-80
2023/08/20 00:18:07;;;;;;;29.87;27.40;;;;;;;;;;5094849;28;20476;-81
2023/08/20 00:20:34;;;;;;;28.50;26.17;;;;;;;;;;5092960;28;20505;-79
2023/08/20 00:23:02;;;;;;;28.57;26.07;;;;;;;;;;5095001;28;20484;-80
2023/08/20 00:25:29;;;;;;;28.47;26.33;;;;;;;;;;5093596;28;20445;-79
2023/08/20 00:27:58;;;;;;;28.87;26.57;;;;;;;;;;5078518;28;20455;-79
2023/08/20 00:30:25;;;;;;;27.00;24.73;;;;;;;;;;5073700;28;20511;-80
2023/08/20 00:32:52;;;;;;;27.57;25.57;;;;;;;;;;5074058;28;20473;-80
2023/08/20 00:35:19;;;;;;;27.30;25.13;;;;;;;;;;5074332;28;20453;-80
2023/08/20 00:37:46;;;;;;;26.80;24.77;;;;;;;;;;5074289;28;20482;-81
2023/08/20 00:40:14;;;;;;;27.10;25.20;;;;;;;;;;5073222;28;20446;-81
2023/08/20 00:42:41;;;;;;;26.37;24.23;;;;;;;;;;5074010;28;20500;-80
2023/08/20 00:45:10;;;;;;;26.77;24.37;;;;;;;;;;5073859;28;20448;-81
2023/08/20 00:47:37;;;;;;;26.20;24.10;;;;;;;;;;5074256;28;20449;-79
2023/08/20 00:50:06;;;;;;;26.10;24.20;;;;;;;;;;5073388;28;20790;-79
2023/08/20 00:52:34;;;;;;;24.93;23.07;;;;;;;;;;5073968;28;20553;-79
2023/08/20 00:55:01;;;;;;;26.17;24.13;;;;;;;;;;5074231;28;20439;-79
2023/08/20 00:57:29;;;;;;;26.67;24.30;;;;;;;;;;5073583;28;20445;-81
2023/08/20 00:59:56;;;;;;;26.90;24.63;;;;;;;;;;5073110;28;20949;-81
2023/08/20 01:02:25;;;;;;;28.27;26.17;;;;;;;;;;5073555;28;20482;-80
2023/08/20 01:04:52;;;;;;;28.33;26.10;;;;;;;;;;5073909;28;20537;-80
2023/08/20 01:07:26;;;;;;;27.60;25.60;;;;;;;;;;5073785;28;20933;-80
2023/08/20 01:09:59;;;;;;;29.83;27.33;;;;;;;;;;5073501;28;20458;-80
2023/08/20 01:12:26;;;;;;;30.37;27.97;;;;;;;;;;5074029;28;20472;-80
2023/08/20 01:14:53;;;;;;;29.00;26.80;;;;;;;;;;5074371;28;20445;-79
2023/08/20 01:17:20;;;;;;;27.57;25.17;;;;;;;;;;5074268;28;20458;-81
2023/08/20 01:19:48;;;;;;;29.90;27.07;;;;;;;;;;5073556;28;20457;-80
2023/08/20 01:22:22;;;;;;;30.37;28.07;;;;;;;;;;5073740;28;20584;-79
2023/08/20 01:24:56;;;;;;;31.57;28.87;;;;;;;;;;5073470;28;20453;-80
2023/08/20 01:27:30;;;;;;;31.40;28.73;;;;;;;;;;5073562;28;20460;-79
2023/08/20 01:29:59;;;;;;;30.53;28.13;;;;;;;;;;5073292;28;20466;-79
2023/08/20 01:32:27;;;;;;;30.93;28.10;;;;;;;;;;5073207;28;20555;-79
2023/08/20 01:34:54;;;;;;;30.67;28.10;;;;;;;;;;5073972;28;20450;-79
2023/08/20 01:37:21;;;;;;;32.23;29.60;;;;;;;;;;5073355;28;21028;-81
2023/08/20 01:39:48;;;;;;;34.20;31.40;;;;;;;;;;5076728;28;20473;-80
2023/08/20 01:42:15;;;;;;;34.07;31.10;;;;;;;;;;5076817;28;20990;-79
2023/08/20 01:44:43;;;;;;;32.03;29.33;;;;;;;;;;5077182;28;20441;-79
2023/08/20 01:47:11;;;;;;;36.57;33.40;;;;;;;;;;5076778;28;20446;-79
2023/08/20 01:49:38;;;;;;;36.60;33.13;;;;;;;;;;5076848;28;20445;-79
2023/08/20 01:52:05;;;;;;;37.73;34.53;;;;;;;;;;5076489;28;20439;-79
2023/08/20 01:54:32;;;;;;;41.53;37.40;;;;;;;;;;5076666;28;20445;-81
2023/08/20 01:56:59;;;;;;;37.80;34.47;;;;;;;;;;5076829;28;20445;-79
2023/08/20 01:59:26;;;;;;;40.63;37.07;;;;;;;;;;5076083;28;20454;-79
2023/08/20 02:01:53;;;;;;;40.83;37.10;;;;;;;;;;5075712;28;20474;-79
2023/08/20 02:04:22;;;;;;;41.80;37.63;;;;;;;;;;5076627;28;20450;-80
2023/08/20 02:06:49;;;;;;;36.07;32.77;;;;;;;;;;5076405;28;20810;-80
2023/08/20 02:09:16;;;;;;;35.87;32.63;;;;;;;;;;5076503;28;20449;-80
2023/08/20 02:11:43;;;;;;;38.20;34.70;;;;;;;;;;5075343;28;20529;-80
2023/08/20 02:14:10;;;;;;;39.60;35.80;;;;;;;;;;5076746;28;20449;-81
2023/08/20 02:16:37;;;;;;;37.70;34.40;;;;;;;;;;5076277;28;20441;-81
2023/08/20 02:19:06;;;;;;;39.70;36.10;;;;;;;;;;5076142;28;20979;-80
2023/08/20 02:21:34;;;;;;;41.70;37.70;;;;;;;;;;5081916;28;20488;-80
2023/08/20 02:24:01;;;;;;;40.13;36.53;;;;;;;;;;5076214;28;20492;-81
2023/08/20 02:26:29;;;;;;;40.63;37.07;;;;;;;;;;5076290;28;20442;-79
2023/08/20 02:28:56;;;;;;;42.33;38.30;;;;;;;;;;5075940;28;20449;-79
2023/08/20 02:31:23;;;;;;;39.83;36.03;;;;;;;;;;5075238;28;20446;-80
2023/08/20 02:33:50;;;;;;;40.70;36.87;;;;;;;;;;5075632;28;20471;-79
2023/08/20 02:36:17;;;;;;;41.47;37.87;;;;;;;;;;5076025;28;21205;-79
2023/08/20 02:38:46;;;;;;;40.93;37.03;;;;;;;;;;5075912;28;20469;-79
2023/08/20 02:41:13;;;;;;;39.43;35.67;;;;;;;;;;5075257;28;20488;-79
2023/08/20 02:43:40;;;;;;;41.07;37.03;;;;;;;;;;5076220;28;20585;-80
2023/08/20 02:46:07;;;;;;;39.23;35.63;;;;;;;;;;5076197;28;20481;-79
2023/08/20 02:48:34;;;;;;;38.20;34.30;;;;;;;;;;5075494;28;20441;-79
2023/08/20 02:51:02;;;;;;;37.50;34.10;;;;;;;;;;5075107;28;20446;-81
2023/08/20 02:53:29;;;;;;;40.93;36.87;;;;;;;;;;5075183;28;20474;-79
2023/08/20 02:55:57;;;;;;;39.83;36.33;;;;;;;;;;5075612;28;20449;-81
2023/08/20 02:58:24;;;;;;;40.37;36.70;;;;;;;;;;5075581;28;20446;-79
2023/08/20 03:00:52;;;;;;;39.30;35.63;;;;;;;;;;5074928;28;20462;-80
2023/08/20 03:03:20;;;;;;;37.17;33.90;;;;;;;;;;5075257;28;20473;-79
2023/08/20 03:05:47;;;;;;;36.37;33.27;;;;;;;;;;5076174;28;20453;-81
2023/08/20 03:08:14;;;;;;;37.47;34.13;;;;;;;;;;5075326;28;20446;-80
2023/08/20 03:10:41;;;;;;;35.57;32.30;;;;;;;;;;5074390;28;20964;-79
2023/08/20 03:13:09;;;;;;;36.97;33.50;;;;;;;;;;5075067;28;20465;-79
2023/08/20 03:15:37;;;;;;;33.83;31.03;;;;;;;;;;5075138;28;20453;-79
2023/08/20 03:18:04;;;;;;;37.20;33.80;;;;;;;;;;5074488;28;20466;-78
2023/08/20 03:20:31;;;;;;;34.87;31.77;;;;;;;;;;5074944;28;20449;-81
2023/08/20 03:22:59;;;;;;;34.67;31.37;;;;;;;;;;5074756;28;20515;-80
2023/08/20 03:25:26;;;;;;;34.70;31.80;;;;;;;;;;5074991;28;20446;-79
2023/08/20 03:27:53;;;;;;;33.43;30.57;;;;;;;;;;5074935;28;20481;-80
2023/08/20 03:30:22;;;;;;;34.77;31.97;;;;;;;;;;5074392;28;20473;-80
2023/08/20 03:32:49;;;;;;;34.77;31.63;;;;;;;;;;5075101;28;20454;-79
2023/08/20 03:35:16;;;;;;;32.37;29.67;;;;;;;;;;5074452;28;20889;-79
2023/08/20 03:37:43;;;;;;;30.53;28.23;;;;;;;;;;5074105;28;20524;-79
2023/08/20 03:40:11;;;;;;;26.73;24.60;;;;;;;;;;5073916;28;20432;-79
2023/08/20 03:42:38;;;;;;;27.10;25.00;;;;;;;;;;5074258;28;20500;-81
2023/08/20 03:45:05;;;;;;;23.70;21.70;;;;;;;;;;5074241;28;20442;-80
2023/08/20 03:47:33;;;;;;;23.77;22.00;;;;;;;;;;5074500;28;20441;-80
2023/08/20 03:50:00;;;;;;;24.50;22.47;;;;;;;;;;5073917;28;20536;-79
2023/08/20 03:52:27;;;;;;;22.43;20.67;;;;;;;;;;5074158;28;21029;-80
2023/08/20 03:54:54;;;;;;;21.90;20.43;;;;;;;;;;5074547;28;20450;-81
2023/08/20 03:57:22;;;;;;;22.97;21.27;;;;;;;;;;5073872;28;20594;-79
2023/08/20 03:59:49;;;;;;;22.33;20.60;;;;;;;;;;5073498;28;20453;-80
2023/08/20 04:02:16;;;;;;;22.20;20.57;;;;;;;;;;5073377;28;20489;-79
2023/08/20 04:04:44;;;;;;;20.37;19.10;;;;;;;;;;5074500;28;20817;-79
2023/08/20 04:07:11;;;;;;;22.10;20.57;;;;;;;;;;5074371;28;21000;-80
2023/08/20 04:09:39;;;;;;;21.20;19.80;;;;;;;;;;5073946;28;20475;-80
2023/08/20 04:12:07;;;;;;;22.57;20.87;;;;;;;;;;5074031;28;20505;-80
2023/08/20 04:14:34;;;;;;;21.80;20.50;;;;;;;;;;5073812;28;20452;-80
2023/08/20 04:17:01;;;;;;;21.07;19.67;;;;;;;;;;5073987;28;20453;-80
2023/08/20 04:19:28;;;;;;;21.70;20.13;;;;;;;;;;5074082;28;20963;-80
2023/08/20 04:21:57;;;;;;;22.40;21.00;;;;;;;;;;5088004;28;20534;-80
2023/08/20 04:24:24;;;;;;;21.77;20.40;;;;;;;;;;5094279;28;20449;-80
2023/08/20 04:26:51;;;;;;;21.50;20.10;;;;;;;;;;5094064;28;20461;-81
2023/08/20 04:29:18;;;;;;;22.47;20.90;;;;;;;;;;5094366;28;20428;-79
2023/08/20 04:31:46;;;;;;;21.90;20.30;;;;;;;;;;5092941;28;20827;-81
2023/08/20 04:34:13;;;;;;;21.27;19.70;;;;;;;;;;5094528;28;20445;-81
2023/08/20 04:36:40;;;;;;;21.50;19.90;;;;;;;;;;5094050;28;20441;-77
2023/08/20 04:39:08;;;;;;;21.70;20.27;;;;;;;;;;5090836;28;20863;-78
2023/08/20 04:41:35;;;;;;;21.67;20.20;;;;;;;;;;5089558;27;20492;-78
2023/08/20 04:44:02;;;;;;;21.47;19.80;;;;;;;;;;5090707;28;20452;-77
2023/08/20 04:46:29;;;;;;;21.67;19.80;;;;;;;;;;5090232;28;20449;-78
2023/08/20 04:48:56;;;;;;;20.90;19.53;;;;;;;;;;5090734;28;20460;-78
2023/08/20 04:51:23;;;;;;;21.20;20.00;;;;;;;;;;5090080;28;20463;-79
2023/08/20 04:53:50;;;;;;;20.77;19.43;;;;;;;;;;5090636;28;20468;-77
2023/08/20 04:56:19;;;;;;;21.77;20.00;;;;;;;;;;5090620;28;20460;-78
2023/08/20 04:58:46;;;;;;;20.00;18.80;;;;;;;;;;5090526;28;20535;-78
2023/08/20 05:01:13;;;;;;;21.30;19.80;;;;;;;;;;5089868;28;20475;-78
2023/08/20 05:03:40;;;;;;;21.07;19.70;;;;;;;;;;5090512;28;20489;-77
2023/08/20 05:06:07;;;;;;;20.07;18.60;;;;;;;;;;5090751;28;20440;-77
2023/08/20 05:08:34;;;;;;;20.87;19.47;;;;;;;;;;5090723;28;20449;-77
2023/08/20 05:11:03;;;;;;;20.70;18.80;;;;;;;;;;5090303;28;20455;-77
2023/08/20 05:13:31;;;;;;;20.73;19.63;;;;;;;;;;5093425;27;20462;-78
2023/08/20 05:15:58;;;;;;;20.27;19.10;;;;;;;;;;5093951;28;20448;-78
2023/08/20 05:18:26;;;;;;;20.53;19.30;;;;;;;;;;5094167;28;20444;-78
2023/08/20 05:20:53;;;;;;;20.40;19.10;;;;;;;;;;5093690;28;20514;-79
2023/08/20 05:23:20;;;;;;;20.10;18.70;;;;;;;;;;5093852;28;20488;-77
2023/08/20 05:25:47;;;;;;;20.57;19.07;;;;;;;;;;5094448;28;20463;-78
2023/08/20 05:28:14;;;;;;;20.40;19.20;;;;;;;;;;5094281;28;21212;-78
2023/08/20 05:30:43;;;;;;;21.27;19.97;;;;;;;;;;5093473;28;20452;-78
2023/08/20 05:33:10;;;;;;;21.10;19.50;;;;;;;;;;5094162;28;20472;-78
2023/08/20 05:35:37;;;;;;;21.13;19.53;;;;;;;;;;5093633;28;20938;-78
2023/08/20 05:38:04;;;;;;;21.37;20.10;;;;;;;;;;5093371;28;20476;-77
2023/08/20 05:40:31;;;;;;;21.13;19.90;;;;;;;;;;5093253;28;20425;-79
2023/08/20 05:42:58;;;;;;;19.70;18.40;;;;;;;;;;5073625;28;20992;-79
2023/08/20 05:45:25;;;;;;;21.23;19.50;;;;;;;;;;5093142;28;20456;-89
2023/08/20 05:47:53;;;;;;;21.30;19.80;;;;;;;;;;5096988;28;20778;-89
2023/08/20 05:50:20;;;;;;;20.23;19.10;;;;;;;;;;5096369;28;20936;-88
2023/08/20 05:52:48;;;;;;;20.87;19.47;;;;;;;;;;5096969;28;20834;-89
2023/08/20 05:55:15;;;;;;;19.73;18.63;;;;;;;;;;5096691;28;20543;-90
2023/08/20 05:57:42;;;;;;;19.93;18.83;;;;;;;;;;5096717;28;20446;-88
2023/08/20 06:00:10;;;;;;;19.67;18.57;;;;;;;;;;5096441;28;20463;-89
2023/08/20 06:02:37;;;;;;;20.47;19.10;;;;;;;;;;5096875;28;20488;-89
2023/08/20 06:05:06;;;;;;;20.20;19.10;;;;;;;;;;5097131;28;20491;-89
2023/08/20 06:07:33;;;;;;;20.07;18.40;;;;;;;;;;5096653;28;20433;-88
2023/08/20 06:10:00;;;;;;;21.77;20.03;;;;;;;;;;5096725;28;20453;-88
2023/08/20 06:12:27;;;;;;;20.67;19.13;;;;;;;;;;5097190;28;20471;-89
2023/08/20 06:14:54;;;;;;;20.13;18.90;;;;;;;;;;5098140;28;20444;-86
2023/08/20 06:17:21;;;;;;;20.60;19.13;;;;;;;;;;5101164;28;20415;-81
2023/08/20 06:19:48;;;;;;;20.57;19.10;;;;;;;;;;5097439;28;20449;-84
2023/08/20 06:22:17;;;;;;;20.43;19.23;;;;;;;;;;5100703;28;20878;-81
2023/08/20 06:24:44;;;;;;;21.57;20.07;;;;;;;;;;5097035;28;20481;-86
2023/08/20 06:27:12;;;;;;;20.40;18.93;;;;;;;;;;5078836;28;20445;-81
2023/08/20 06:29:39;;;;;;;22.33;20.83;;;;;;;;;;5081427;28;20454;-79
2023/08/20 06:32:06;;;;;;;21.13;19.57;;;;;;;;;;5077461;28;20507;-80
2023/08/20 06:34:36;;;;;;;22.50;20.80;;;;;;;;;;5077228;28;20457;-81
2023/08/20 06:37:03;;;;;;;21.00;19.50;;;;;;;;;;5077228;28;20457;-80
2023/08/20 06:39:31;;;;;;;21.63;20.10;;;;;;;;;;5077323;28;20450;-80
2023/08/20 06:41:58;;;;;;;21.30;20.07;;;;;;;;;;5091483;28;20484;-81
2023/08/20 06:44:25;;;;;;;21.90;20.47;;;;;;;;;;5100473;28;20456;-81
2023/08/20 06:46:53;;;;;;;22.20;20.80;;;;;;;;;;5101627;28;21147;-89
2023/08/20 06:49:20;;;;;;;21.60;20.20;;;;;;;;;;5103557;28;20437;-87
2023/08/20 06:51:47;;;;;;;21.67;20.23;;;;;;;;;;5103217;28;20440;-85
2023/08/20 06:54:14;;;;;;;22.83;21.43;;;;;;;;;;5103304;28;20448;-86
2023/08/20 06:56:42;;;;;;;22.10;20.50;;;;;;;;;;5098371;28;20951;-87
2023/08/20 06:59:10;;;;;;;23.20;21.70;;;;;;;;;;5097784;28;20953;-80
2023/08/20 07:01:37;;;;;;;22.43;21.03;;;;;;;;;;5098798;28;20472;-81
2023/08/20 07:04:04;;;;;;;23.00;21.60;;;;;;;;;;5100772;28;20483;-82
2023/08/20 07:06:31;;;;;;;23.33;21.73;;;;;;;;;;5099183;28;20826;-81
2023/08/20 07:08:58;;;;;;;24.57;22.83;;;;;;;;;;5095854;28;20448;-82
2023/08/20 07:11:25;;;;;;;25.03;23.20;;;;;;;;;;5107007;28;20467;-80
2023/08/20 07:13:54;;;;;;;24.60;23.00;;;;;;;;;;5092311;28;20858;-81
2023/08/20 07:16:21;;;;;;;26.27;24.07;;;;;;;;;;5096373;28;20449;-80
2023/08/20 07:18:48;;;;;;;25.67;23.87;;;;;;;;;;5076304;28;20449;-81
2023/08/20 07:21:15;;;;;;;25.70;23.90;;;;;;;;;;5075056;28;20441;-80
2023/08/20 07:23:42;;;;;;;24.73;23.00;;;;;;;;;;5075856;28;20489;-80
2023/08/20 07:26:10;;;;;;;25.40;23.70;;;;;;;;;;5075872;28;20458;-81
2023/08/20 07:31:24;;;;;;;29.67;27.33;;;;;;;;;;5075183;28;20417;-80
2023/08/20 07:33:51;;;;;;;27.73;25.53;;;;;;;;;;5078026;28;20484;-80
2023/08/20 07:36:19;;;;;;;27.33;25.37;;;;;;;;;;5075731;28;20468;-80
2023/08/20 07:38:46;;;;;;;29.23;27.03;;;;;;;;;;5076350;28;20445;-87
2023/08/20 07:41:13;;;;;;;30.00;27.80;;;;;;;;;;5078530;28;20453;-87
2023/08/20 07:43:41;;;;;;;29.70;27.40;;;;;;;;;;5078022;28;20534;-80
2023/08/20 07:46:08;;;;;;;30.50;28.40;;;;;;;;;;5075760;28;20437;-79
2023/08/20 07:48:37;;;;;;;28.97;26.97;;;;;;;;;;5077523;28;20450;-79
2023/08/20 07:51:04;;;;;;;32.20;29.47;;;;;;;;;;5075055;28;20491;-87
2023/08/20 07:53:31;;;;;;;29.70;27.60;;;;;;;;;;5078747;28;20462;-87
2023/08/20 07:55:58;;;;;;;31.37;28.97;;;;;;;;;;5078779;28;20798;-87
2023/08/20 07:58:25;;;;;;;30.50;28.10;;;;;;;;;;5075428;28;20464;-88
2023/08/20 08:00:53;;;;;;;31.23;28.93;;;;;;;;;;5075063;28;20446;-87
2023/08/20 08:03:20;;;;;;;32.77;30.03;;;;;;;;;;5075960;28;20493;-80
2023/08/20 08:05:49;;;;;;;32.07;29.47;;;;;;;;;;5075797;28;20909;-81
2023/08/20 08:08:17;;;;;;;33.33;30.80;;;;;;;;;;5075571;28;20453;-92
2023/08/20 08:10:45;;;;;;;34.00;31.40;;;;;;;;;;5075103;28;20865;-84
2023/08/20 08:13:12;;;;;;;30.60;28.30;;;;;;;;;;5080702;28;20465;-86
2023/08/20 08:15:39;;;;;;;33.20;30.60;;;;;;;;;;5091056;28;20437;-86
2023/08/20 08:18:06;;;;;;;32.87;30.20;;;;;;;;;;5088292;28;20449;-85
2023/08/20 08:20:33;;;;;;;33.83;31.23;;;;;;;;;;5095935;28;20447;-90
2023/08/20 08:23:02;;;;;;;34.13;31.57;;;;;;;;;;5094971;28;21014;-88
2023/08/20 08:25:30;;;;;;;30.97;28.73;;;;;;;;;;5094559;28;20494;-90
2023/08/20 08:27:57;;;;;;;32.20;29.80;;;;;;;;;;5095416;28;20453;-87
2023/08/20 08:30:24;;;;;;;32.60;30.10;;;;;;;;;;5094746;28;20442;-89
2023/08/20 08:32:51;;;;;;;32.77;30.17;;;;;;;;;;5095436;28;20519;-87
2023/08/20 08:35:18;;;;;;;34.27;31.67;;;;;;;;;;5096253;28;20459;-82
2023/08/20 08:37:45;;;;;;;33.70;30.93;;;;;;;;;;5096533;28;20449;-83
2023/08/20 08:40:14;;;;;;;34.93;32.23;;;;;;;;;;5096284;28;20460;-84
2023/08/20 08:42:42;;;;;;;34.20;31.60;;;;;;;;;;5092975;28;20493;-83
2023/08/20 08:45:10;;;;;;;33.67;31.10;;;;;;;;;;5094864;28;20453;-89
2023/08/20 08:47:38;;;;;;;31.43;29.23;;;;;;;;;;5096618;28;20883;-89
2023/08/20 08:50:05;;;;;;;32.80;30.47;;;;;;;;;;5097664;28;20453;-89
2023/08/20 08:52:33;;;;;;;32.53;30.03;;;;;;;;;;5099071;28;20473;-81
2023/08/20 08:55:00;;;;;;;34.53;32.00;;;;;;;;;;5097186;28;20519;-81
2023/08/20 08:57:28;;;;;;;32.20;29.90;;;;;;;;;;5083000;28;21164;-80
2023/08/20 08:59:56;;;;;;;35.00;31.80;;;;;;;;;;5082282;28;20469;-81
2023/08/20 09:02:23;;;;;;;31.67;29.50;;;;;;;;;;5078692;28;20969;-83
2023/08/20 09:04:50;;;;;;;31.30;29.10;;;;;;;;;;5087617;28;20499;-81
2023/08/20 09:07:17;;;;;;;33.50;31.10;;;;;;;;;;5078012;28;20442;-81
2023/08/20 09:09:44;;;;;;;31.47;29.07;;;;;;;;;;5077604;28;20441;-81
2023/08/20 09:12:14;;;;;;;32.43;29.43;;;;;;;;;;5078705;28;20480;-81
2023/08/20 09:14:45;;;;;;;31.17;28.97;;;;;;;;;;5078889;28;20429;-81
2023/08/20 09:17:13;;;;;;;30.70;28.37;;;;;;;;;;5078740;28;20430;-81
2023/08/20 09:19:40;;;;;;;27.67;25.87;;;;;;;;;;5078020;28;20788;-82
2023/08/20 09:22:07;;;;;;;29.03;26.93;;;;;;;;;;5078764;28;20503;-80
2023/08/20 09:24:35;;;;;;;29.80;27.80;;;;;;;;;;5079386;28;20485;-80
2023/08/20 09:27:04;;;;;;;26.63;24.60;;;;;;;;;;5079822;28;20450;-81
2023/08/20 09:29:33;;;;;;;29.63;27.53;;;;;;;;;;5079173;28;20506;-80
2023/08/20 09:32:03;;;;;;;31.30;29.00;;;;;;;;;;5078187;28;20519;-80
2023/08/20 09:34:39;;;;;;;29.60;27.70;;;;;;;;;;5078944;28;20450;-81
2023/08/20 09:37:09;;;;;;;30.90;28.80;;;;;;;;;;5080243;28;20429;-80
2023/08/20 09:39:36;;;;;;;28.83;26.77;;;;;;;;;;5079341;28;20485;-83
2023/08/20 09:42:03;;;;;;;29.60;27.43;;;;;;;;;;5078031;28;20464;-81
2023/08/20 09:44:33;;;;;;;29.07;27.00;;;;;;;;;;5079418;28;20481;-82
2023/08/20 09:47:04;;;;;;;28.00;26.10;;;;;;;;;;5079401;28;20479;-81
2023/08/20 09:49:33;;;;;;;27.90;26.03;;;;;;;;;;5079789;28;20430;-79
2023/08/20 09:52:01;;;;;;;27.57;25.67;;;;;;;;;;5077653;28;20483;-81
2023/08/20 09:54:32;;;;;;;27.43;25.63;;;;;;;;;;5077910;28;20441;-80
2023/08/20 09:57:02;;;;;;;29.47;27.10;;;;;;;;;;5078468;28;20453;-80
2023/08/20 09:59:30;;;;;;;27.87;25.80;;;;;;;;;;5077113;28;20558;-80
2023/08/20 10:01:57;;;;;;;29.40;27.40;;;;;;;;;;5077648;28;20473;-80
2023/08/20 10:04:26;;;;;;;28.90;26.80;;;;;;;;;;5079067;28;20513;-81
2023/08/20 10:06:54;;;;;;;28.30;26.43;;;;;;;;;;5078438;28;20434;-81
2023/08/20 10:09:22;;;;;;;29.67;27.77;;;;;;;;;;5078348;28;20429;-81
2023/08/20 10:11:49;;;;;;;28.83;26.93;;;;;;;;;;5077780;28;20499;-82
2023/08/20 10:14:16;;;;;;;28.27;26.47;;;;;;;;;;5078960;28;20456;-83
2023/08/20 10:16:43;;;;;;;27.73;25.83;;;;;;;;;;5094499;28;20443;-81
2023/08/20 10:19:11;;;;;;;27.17;25.43;;;;;;;;;;5099980;28;20440;-81
2023/08/20 10:21:45;;;;;;;28.40;26.60;;;;;;;;;;5098646;28;20948;-82
2023/08/20 10:24:18;;;;;;;27.67;25.97;;;;;;;;;;5098002;28;20488;-80
2023/08/20 10:26:46;;;;;;;28.67;26.87;;;;;;;;;;5096474;27;20497;-88
2023/08/20 10:29:32;;;;;;;28.17;26.47;;;;;;;;;;5096935;28;20810;-80
2023/08/20 10:31:59;;;;;;;29.37;27.47;;;;;;;;;;5096198;28;20447;-81
2023/08/20 10:34:34;;;;;;;29.03;26.67;;;;;;;;;;5097043;28;20448;-80
2023/08/20 10:37:04;;;;;;;27.70;26.00;;;;;;;;;;5097241;28;20428;-82
2023/08/20 10:39:31;;;;;;;25.93;24.33;;;;;;;;;;5097453;28;20476;-80
2023/08/20 10:42:10;;;;;;;26.70;25.10;;;;;;;;;;5095327;28;21286;-82
2023/08/20 10:44:52;;;;;;;29.03;27.10;;;;;;;;;;5095928;28;20496;-82
2023/08/20 10:47:19;;;;;;;28.60;26.70;;;;;;;;;;5096648;28;20879;-80
2023/08/20 10:49:46;;;;;;;29.07;27.10;;;;;;;;;;5096116;28;20433;-83
2023/08/20 10:52:14;;;;;;;29.67;27.80;;;;;;;;;;5098846;28;20464;-81
2023/08/20 10:54:42;;;;;;;26.70;25.00;;;;;;;;;;5099399;28;20424;-80
2023/08/20 10:57:09;;;;;;;28.57;26.67;;;;;;;;;;5099770;28;20427;-82
2023/08/20 10:59:40;;;;;;;27.83;26.20;;;;;;;;;;5099001;28;20456;-82
2023/08/20 11:02:11;;;;;;;28.10;26.47;;;;;;;;;;5098887;28;20514;-81
2023/08/20 11:04:39;;;;;;;27.53;25.97;;;;;;;;;;5098815;28;20553;-80
2023/08/20 11:07:06;;;;;;;29.90;27.83;;;;;;;;;;5098883;28;20535;-82
2023/08/20 11:09:35;;;;;;;26.50;24.90;;;;;;;;;;5098918;28;20948;-81
2023/08/20 11:12:02;;;;;;;28.23;26.53;;;;;;;;;;5097919;28;21034;-80
2023/08/20 11:14:30;;;;;;;28.17;26.43;;;;;;;;;;5098850;28;20423;-82
2023/08/20 11:16:58;;;;;;;27.93;26.13;;;;;;;;;;5097372;28;20926;-91
2023/08/20 11:19:25;;;;;;;27.73;26.13;;;;;;;;;;5098439;28;20431;-84
2023/08/20 11:21:52;;;;;;;28.13;26.30;;;;;;;;;;5100997;28;20509;-83
2023/08/20 11:24:20;;;;;;;28.57;26.83;;;;;;;;;;5101866;28;20512;-85
2023/08/20 11:26:48;;;;;;;27.87;26.23;;;;;;;;;;5101633;28;20454;-85
2023/08/20 11:29:19;;;;;;;27.83;26.13;;;;;;;;;;5101618;28;20449;-83
2023/08/20 11:31:46;;;;;;;27.43;25.70;;;;;;;;;;5101525;28;20440;-84
2023/08/20 11:34:13;;;;;;;28.50;26.80;;;;;;;;;;5102366;28;20444;-84
2023/08/20 11:36:41;;;;;;;27.70;26.00;;;;;;;;;;5091447;28;20453;-85
2023/08/20 11:39:08;;;;;;;28.47;26.67;;;;;;;;;;5081662;28;21063;-85
2023/08/20 11:41:37;;;;;;;29.53;27.43;;;;;;;;;;5081333;28;20449;-85
2023/08/20 11:44:06;;;;;;;28.67;26.87;;;;;;;;;;5081331;28;20975;-83
2023/08/20 11:46:33;;;;;;;28.13;26.40;;;;;;;;;;5081385;28;20438;-86
2023/08/20 11:49:01;;;;;;;28.83;26.83;;;;;;;;;;5081758;28;20454;-84
2023/08/20 11:51:28;;;;;;;27.87;26.17;;;;;;;;;;5081270;28;20450;-83
2023/08/20 11:53:55;;;;;;;28.00;26.20;;;;;;;;;;5081139;28;20473;-85
2023/08/20 11:56:23;;;;;;;28.97;27.23;;;;;;;;;;5077685;28;20453;-90
2023/08/20 11:58:51;;;;;;;28.13;26.37;;;;;;;;;;5074465;28;20449;-90
2023/08/20 12:01:20;;;;;;;29.03;27.23;;;;;;;;;;5073885;28;20465;-89
2023/08/20 12:03:47;;;;;;;27.53;25.73;;;;;;;;;;5073895;28;20505;-90
2023/08/20 12:06:22;;;;;;;28.60;26.80;;;;;;;;;;5075889;28;20453;-86
2023/08/20 12:08:49;;;;;;;28.80;27.00;;;;;;;;;;5080391;28;20450;-86
2023/08/20 12:11:17;;;;;;;29.50;27.57;;;;;;;;;;5081830;28;20454;-86
2023/08/20 12:13:44;;;;;;;29.27;27.47;;;;;;;;;;5081720;28;20473;-85
2023/08/20 12:16:11;;;;;;;29.80;28.00;;;;;;;;;;5081994;28;20453;-84
2023/08/20 12:18:40;;;;;;;28.90;27.00;;;;;;;;;;5080031;28;20457;-82
2023/08/20 12:21:07;;;;;;;27.40;25.70;;;;;;;;;;5078334;28;20454;-84
2023/08/20 12:23:34;;;;;;;28.30;26.40;;;;;;;;;;5079406;28;20480;-84
2023/08/20 12:26:01;;;;;;;27.73;25.73;;;;;;;;;;5083131;28;20489;-82
2023/08/20 12:28:28;;;;;;;28.27;26.57;;;;;;;;;;5088981;28;20453;-82
2023/08/20 12:30:55;;;;;;;29.33;27.37;;;;;;;;;;5079504;28;20441;-82
2023/08/20 12:33:22;;;;;;;28.67;26.97;;;;;;;;;;5079368;28;20469;-82
2023/08/20 12:35:51;;;;;;;28.73;26.67;;;;;;;;;;5079023;28;20442;-82
2023/08/20 12:38:18;;;;;;;28.40;26.57;;;;;;;;;;5095304;28;20449;-82
2023/08/20 12:40:45;;;;;;;28.83;27.10;;;;;;;;;;5093486;28;20456;-81
2023/08/20 12:43:12;;;;;;;27.33;25.60;;;;;;;;;;5093259;28;20468;-82
2023/08/20 12:45:39;;;;;;;27.20;25.43;;;;;;;;;;5094094;28;20497;-82
2023/08/20 12:48:07;;;;;;;29.47;27.47;;;;;;;;;;5094358;28;20460;-82
2023/08/20 12:50:34;;;;;;;27.20;25.50;;;;;;;;;;5094872;28;20532;-81
2023/08/20 12:53:02;;;;;;;27.37;25.30;;;;;;;;;;5084607;28;20474;-83
2023/08/20 12:55:29;;;;;;;26.37;24.77;;;;;;;;;;5076779;28;20450;-81
2023/08/20 12:57:57;;;;;;;27.93;26.23;;;;;;;;;;5076152;28;20450;-81
2023/08/20 13:00:25;;;;;;;28.37;26.57;;;;;;;;;;5076742;28;20465;-81
2023/08/20 13:02:53;;;;;;;27.27;25.60;;;;;;;;;;5077905;28;20531;-83
2023/08/20 13:05:20;;;;;;;28.30;26.60;;;;;;;;;;5095266;28;20488;-81
2023/08/20 13:07:48;;;;;;;29.10;27.30;;;;;;;;;;5098842;28;20448;-82
2023/08/20 13:10:17;;;;;;;26.83;25.03;;;;;;;;;;5081083;28;20556;-81
2023/08/20 13:12:48;;;;;;;26.70;25.00;;;;;;;;;;5078408;28;20835;-81
2023/08/20 13:15:16;;;;;;;26.50;24.80;;;;;;;;;;5078891;28;20438;-83
2023/08/20 13:17:44;;;;;;;27.47;25.60;;;;;;;;;;5078465;28;20478;-82
2023/08/20 13:20:11;;;;;;;28.57;26.67;;;;;;;;;;5078407;28;20469;-81
2023/08/20 13:22:38;;;;;;;27.33;25.63;;;;;;;;;;5077701;28;20968;-81
2023/08/20 13:25:06;;;;;;;25.80;24.30;;;;;;;;;;5078387;28;20477;-82
2023/08/20 13:27:34;;;;;;;27.70;25.87;;;;;;;;;;5078395;28;20453;-82
2023/08/20 13:30:02;;;;;;;28.83;26.80;;;;;;;;;;5076997;28;20450;-83
2023/08/20 13:32:29;;;;;;;28.50;26.57;;;;;;;;;;5083525;28;20505;-84
2023/08/20 13:34:57;;;;;;;29.40;27.50;;;;;;;;;;5091768;28;20473;-83
2023/08/20 13:37:24;;;;;;;28.20;26.33;;;;;;;;;;5102480;28;20448;-82
2023/08/20 13:39:51;;;;;;;29.60;27.60;;;;;;;;;;5090582;28;20518;-81
2023/08/20 13:42:18;;;;;;;26.63;25.00;;;;;;;;;;5081915;28;20453;-82
2023/08/20 13:44:47;;;;;;;28.50;26.60;;;;;;;;;;5081818;28;20496;-81
2023/08/20 13:47:14;;;;;;;28.37;26.50;;;;;;;;;;5082427;28;20433;-82
2023/08/20 13:49:41;;;;;;;28.20;26.50;;;;;;;;;;5081760;28;20456;-82
2023/08/20 13:52:08;;;;;;;29.50;27.70;;;;;;;;;;5081710;28;20469;-83
2023/08/20 13:54:36;;;;;;;28.30;26.53;;;;;;;;;;5081614;28;20442;-81
2023/08/20 13:57:04;;;;;;;29.10;27.40;;;;;;;;;;5081790;28;20454;-83
2023/08/20 13:59:31;;;;;;;27.70;26.00;;;;;;;;;;5082098;28;20942;-83
2023/08/20 14:01:59;;;;;;;28.33;26.53;;;;;;;;;;5082000;28;20488;-81
2023/08/20 14:04:27;;;;;;;28.73;26.87;;;;;;;;;;5088859;28;20469;-88
2023/08/20 14:06:54;;;;;;;29.47;27.57;;;;;;;;;;5097012;28;20443;-88
2023/08/20 14:09:21;;;;;;;29.27;27.43;;;;;;;;;;5105793;28;20451;-85
2023/08/20 14:11:48;;;;;;;28.50;26.60;;;;;;;;;;5109198;28;20527;-84
2023/08/20 14:14:15;;;;;;;28.37;26.67;;;;;;;;;;5106419;28;20468;-88
2023/08/20 14:16:42;;;;;;;28.93;27.07;;;;;;;;;;5114401;28;20444;-87
2023/08/20 14:19:10;;;;;;;29.30;27.50;;;;;;;;;;5118189;28;20432;-89
2023/08/20 14:21:37;;;;;;;28.60;26.70;;;;;;;;;;5116382;28;20928;-89